createdAt,value
2023-01-29T00:01:48.142Z,31.60
2023-01-29T00:04:15.245Z,26.48
2023-01-29T00:06:42.072Z,32.47
2023-01-29T00:09:09.378Z,29.85
2023-01-29T00:11:36.060Z,30.00
2023-01-29T00:14:02.592Z,30.13
2023-01-29T00:16:29.520Z,32.40
2023-01-29T00:18:55.947Z,32.88
2023-01-29T00:21:23.044Z,28.15
2023-01-29T00:23:50.424Z,33.15
2023-01-29T00:28:44.074Z,33.08
2023-01-29T00:31:16.103Z,31.92
2023-01-29T00:33:42.879Z,31.60
2023-01-29T00:36:11.610Z,32.83
2023-01-29T00:38:39.532Z,34.60
2023-01-29T00:41:28.685Z,35.25
2023-01-29T00:44:13.991Z,38.83
2023-01-29T00:46:40.564Z,32.97
2023-01-29T00:49:07.812Z,38.17
2023-01-29T00:54:06.702Z,33.95
2023-01-29T00:56:35.851Z,33.45
2023-01-29T00:59:04.123Z,32.80
2023-01-29T01:01:49.492Z,34.55
2023-01-29T01:04:16.032Z,30.95
2023-01-29T01:06:43.396Z,34.03
2023-01-29T01:09:29.554Z,40.78
2023-01-29T01:11:56.819Z,36.80
2023-01-29T01:14:23.394Z,37.65
2023-01-29T01:16:49.927Z,34.92
2023-01-29T01:19:16.791Z,34.80
2023-01-29T01:21:45.431Z,34.78
2023-01-29T01:24:13.097Z,34.28
2023-01-29T01:26:39.830Z,45.75
2023-01-29T01:29:06.456Z,42.72
2023-01-29T01:31:32.894Z,46.08
2023-01-29T01:33:59.485Z,42.25
2023-01-29T01:36:25.974Z,43.03
2023-01-29T01:38:52.402Z,44.13
2023-01-29T01:41:21.866Z,36.42
2023-01-29T01:44:01.489Z,37.80
2023-01-29T01:46:31.427Z,38.90
2023-01-29T01:49:16.129Z,38.35
2023-01-29T01:51:50.703Z,41.03
2023-01-29T01:54:23.824Z,49.00
2023-01-29T01:56:55.859Z,46.03
2023-01-29T01:59:23.844Z,40.30
2023-01-29T02:01:53.965Z,42.30
2023-01-29T02:04:42.511Z,45.20
2023-01-29T02:07:32.603Z,40.38
2023-01-29T02:10:16.880Z,44.50
2023-01-29T02:12:45.753Z,43.63
2023-01-29T02:15:13.267Z,40.97
2023-01-29T02:17:40.015Z,41.67
2023-01-29T02:20:15.968Z,45.30
2023-01-29T02:22:56.071Z,40.55
2023-01-29T02:25:50.664Z,48.17
2023-01-29T02:28:43.251Z,44.25
2023-01-29T02:31:35.485Z,42.30
2023-01-29T02:34:51.730Z,43.50
2023-01-29T02:37:25.663Z,43.10
2023-01-29T02:42:39.164Z,41.22
2023-01-29T02:45:12.291Z,39.83
2023-01-29T02:48:05.574Z,44.42
2023-01-29T02:50:45.390Z,44.58
2023-01-29T02:53:41.127Z,40.25
2023-01-29T02:56:15.639Z,37.78
2023-01-29T02:58:46.000Z,38.40
2023-01-29T03:01:18.798Z,38.70
2023-01-29T03:03:50.160Z,37.67
2023-01-29T03:06:46.475Z,38.20
2023-01-29T03:09:21.932Z,43.80
2023-01-29T03:11:58.665Z,42.83
2023-01-29T03:14:52.916Z,38.80
2023-01-29T03:17:25.426Z,38.13
2023-01-29T03:19:52.471Z,37.33
2023-01-29T03:22:23.158Z,36.58
2023-01-29T03:25:15.614Z,42.05
2023-01-29T03:28:09.519Z,38.30
2023-01-29T03:31:09.357Z,38.83
2023-01-29T03:33:44.297Z,33.83
2023-01-29T03:36:18.583Z,40.80
2023-01-29T03:38:48.995Z,37.08
2023-01-29T03:41:28.687Z,40.83
2023-01-29T03:44:02.425Z,36.33
2023-01-29T03:46:34.638Z,36.17
2023-01-29T03:49:15.942Z,34.17
2023-01-29T03:51:48.432Z,37.78
2023-01-29T03:54:44.256Z,34.72
2023-01-29T03:57:27.151Z,31.02
2023-01-29T04:00:02.148Z,44.72
2023-01-29T04:02:35.705Z,46.85
2023-01-29T04:05:10.953Z,50.00
2023-01-29T04:07:40.543Z,48.03
2023-01-29T04:10:17.101Z,50.28
2023-01-29T04:12:53.718Z,38.70
2023-01-29T04:15:23.128Z,36.75
2023-01-29T04:17:52.722Z,33.60
2023-01-29T04:20:20.797Z,44.75
2023-01-29T04:22:50.355Z,48.75
2023-01-29T04:25:26.858Z,48.83
2023-01-29T04:28:05.779Z,38.13
2023-01-29T04:30:56.552Z,34.20
2023-01-29T04:33:40.343Z,32.80
2023-01-29T04:36:20.738Z,31.95
2023-01-29T04:39:17.990Z,36.75
2023-01-29T04:41:54.421Z,34.88
2023-01-29T04:44:24.459Z,34.38
2023-01-29T04:47:20.155Z,38.42
2023-01-29T04:49:58.977Z,37.40
2023-01-29T04:52:46.967Z,34.20
2023-01-29T04:55:35.973Z,33.70
2023-01-29T04:58:12.655Z,36.88
2023-01-29T05:00:44.357Z,37.38
2023-01-29T05:03:13.348Z,42.25
2023-01-29T05:05:42.951Z,35.40
2023-01-29T05:08:13.449Z,40.00
2023-01-29T05:10:40.145Z,31.88
2023-01-29T05:13:11.591Z,32.15
2023-01-29T05:15:41.838Z,33.45
2023-01-29T05:18:09.028Z,31.98
2023-01-29T05:20:39.124Z,35.88
2023-01-29T05:23:18.623Z,40.97
2023-01-29T05:25:46.351Z,39.08
2023-01-29T05:28:17.190Z,37.42
2023-01-29T05:30:46.478Z,35.22
2023-01-29T05:33:19.068Z,39.75
2023-01-29T05:35:46.564Z,41.33
2023-01-29T05:40:40.221Z,38.08
2023-01-29T05:43:15.381Z,34.55
2023-01-29T05:45:42.155Z,33.50
2023-01-29T05:48:09.185Z,32.60
2023-01-29T05:50:35.664Z,38.75
2023-01-29T05:53:02.411Z,41.60
2023-01-29T05:55:31.958Z,36.90
2023-01-29T05:57:58.683Z,30.23
2023-01-29T06:00:25.594Z,35.13
2023-01-29T06:02:52.785Z,32.35
2023-01-29T06:05:19.267Z,37.05
2023-01-29T06:07:46.961Z,34.15
2023-01-29T06:12:43.584Z,33.97
2023-01-29T06:15:11.159Z,32.13
2023-01-29T06:17:37.804Z,37.85
2023-01-29T06:20:05.378Z,33.38
2023-01-29T06:22:33.091Z,31.45
2023-01-29T06:24:59.975Z,35.88
2023-01-29T06:27:26.678Z,35.25
2023-01-29T06:29:53.390Z,36.33
2023-01-29T06:32:19.995Z,36.65
2023-01-29T06:34:48.716Z,37.42
2023-01-29T06:37:16.392Z,32.78
2023-01-29T06:39:42.822Z,36.22
2023-01-29T06:42:09.980Z,36.13
2023-01-29T06:44:36.901Z,35.03
2023-01-29T06:47:03.834Z,33.78
2023-01-29T06:49:30.998Z,34.13
2023-01-29T06:51:57.727Z,30.75
2023-01-29T06:54:26.209Z,32.85
2023-01-29T06:56:53.307Z,33.72
2023-01-29T06:59:20.078Z,33.20
2023-01-29T07:01:46.768Z,32.45
2023-01-29T07:04:13.676Z,34.90
2023-01-29T07:06:40.156Z,31.48
2023-01-29T07:09:07.002Z,35.53
2023-01-29T07:11:37.855Z,35.20
2023-01-29T07:14:04.494Z,35.97
2023-01-29T07:16:31.371Z,35.55
2023-01-29T07:18:58.174Z,34.67
2023-01-29T07:21:25.060Z,39.25
2023-01-29T07:23:51.526Z,32.30
2023-01-29T07:26:18.717Z,34.47
2023-01-29T07:28:45.088Z,35.15
2023-01-29T07:31:13.864Z,36.20
2023-01-29T07:33:43.795Z,38.63
2023-01-29T07:36:11.570Z,32.92
2023-01-29T07:38:38.126Z,37.58
2023-01-29T07:41:04.861Z,40.05
2023-01-29T07:43:31.487Z,36.65
2023-01-29T07:46:02.380Z,33.95
2023-01-29T07:48:28.986Z,34.17
2023-01-29T07:50:57.403Z,31.13
2023-01-29T07:53:23.969Z,34.05
2023-01-29T07:55:51.468Z,33.80
2023-01-29T07:58:18.366Z,28.08
2023-01-29T08:00:45.211Z,37.40
2023-01-29T08:03:17.575Z,31.63
2023-01-29T08:05:44.811Z,34.72
2023-01-29T08:08:11.470Z,32.00
2023-01-29T08:10:39.516Z,30.83
2023-01-29T08:13:07.340Z,29.17
2023-01-29T08:15:37.086Z,31.73
2023-01-29T08:18:04.778Z,28.45
2023-01-29T08:20:31.461Z,31.58
2023-01-29T08:23:02.759Z,29.25
2023-01-29T08:25:29.452Z,30.52
2023-01-29T08:27:57.909Z,26.65
2023-01-29T08:30:30.245Z,32.03
2023-01-29T08:32:57.130Z,29.45
2023-01-29T08:35:24.442Z,30.23
2023-01-29T08:40:21.527Z,30.40
2023-01-29T08:42:48.115Z,37.25
2023-01-29T08:45:14.680Z,32.85
2023-01-29T08:47:49.049Z,30.80
2023-01-29T08:50:17.638Z,30.50
2023-01-29T08:52:45.689Z,30.33
2023-01-29T08:55:12.307Z,22.13
2023-01-29T08:57:39.400Z,27.05
2023-01-29T09:00:07.696Z,27.30
2023-01-29T09:02:34.971Z,29.08
2023-01-29T09:05:01.499Z,25.92
2023-01-29T09:07:29.250Z,28.63
2023-01-29T09:09:55.875Z,28.83
2023-01-29T09:12:22.547Z,26.40
2023-01-29T09:14:49.237Z,25.98
2023-01-29T09:17:15.853Z,23.42
2023-01-29T09:19:42.305Z,25.17
2023-01-29T09:22:10.943Z,26.63
2023-01-29T09:24:38.307Z,24.55
2023-01-29T09:27:06.023Z,24.48
2023-01-29T09:29:35.431Z,26.98
2023-01-29T09:32:04.581Z,27.08
2023-01-29T09:34:31.173Z,25.35
2023-01-29T09:36:58.373Z,29.33
2023-01-29T09:41:58.392Z,29.38
2023-01-29T09:44:43.545Z,28.85
2023-01-29T09:47:13.772Z,28.10
2023-01-29T09:49:45.832Z,29.40
2023-01-29T09:52:20.262Z,24.75
2023-01-29T09:55:05.972Z,25.63
2023-01-29T09:57:54.143Z,26.98
2023-01-29T10:00:37.405Z,26.17
2023-01-29T10:03:32.017Z,24.00
2023-01-29T10:06:08.040Z,36.40
2023-01-29T10:08:47.033Z,32.55
2023-01-29T10:11:26.927Z,31.73
2023-01-29T10:14:22.704Z,26.30
2023-01-29T10:17:07.449Z,21.73
2023-01-29T10:19:52.626Z,22.67
2023-01-29T10:22:39.624Z,22.88
2023-01-29T10:25:11.445Z,25.30
2023-01-29T10:27:41.159Z,25.90
2023-01-29T10:30:20.385Z,26.27
2023-01-29T10:32:49.206Z,21.02
2023-01-29T10:35:34.291Z,19.60
2023-01-29T10:38:18.620Z,18.40
2023-01-29T10:40:55.647Z,19.90
2023-01-29T10:43:37.257Z,17.30
2023-01-29T10:46:18.129Z,18.98
2023-01-29T10:48:57.209Z,18.08
2023-01-29T10:54:19.607Z,19.83
2023-01-29T10:56:55.903Z,22.48
2023-01-29T10:59:48.833Z,21.25
2023-01-29T11:02:18.550Z,19.27
2023-01-29T11:04:45.753Z,20.83
2023-01-29T11:07:14.704Z,18.52
2023-01-29T11:09:56.255Z,19.45
2023-01-29T11:12:30.308Z,18.20
2023-01-29T11:15:04.929Z,19.55
2023-01-29T11:17:31.532Z,20.55
2023-01-29T11:19:58.559Z,20.83
2023-01-29T11:22:27.443Z,19.23
2023-01-29T11:25:21.831Z,20.42
2023-01-29T11:28:02.873Z,20.63
2023-01-29T11:30:37.310Z,19.00
2023-01-29T11:33:23.637Z,20.00
2023-01-29T11:35:52.441Z,19.20
2023-01-29T11:38:25.704Z,20.45
2023-01-29T11:40:53.274Z,21.67
2023-01-29T11:43:22.530Z,17.70
2023-01-29T11:45:56.003Z,19.67
2023-01-29T11:48:32.172Z,19.98
2023-01-29T11:51:00.692Z,21.63
2023-01-29T11:53:36.977Z,21.75
2023-01-29T11:56:06.930Z,20.85
2023-01-29T11:58:35.799Z,20.20
2023-01-29T12:01:03.783Z,19.67
2023-01-29T12:03:40.109Z,17.35
2023-01-29T12:06:21.493Z,17.05
2023-01-29T12:08:58.742Z,16.95
2023-01-29T12:11:31.748Z,19.50
2023-01-29T12:14:01.020Z,16.95
2023-01-29T12:16:38.137Z,17.33
2023-01-29T12:19:38.229Z,18.20
2023-01-29T12:22:28.663Z,15.73
2023-01-29T12:24:55.119Z,16.45
2023-01-29T12:27:46.408Z,16.27
2023-01-29T12:30:21.608Z,17.92
2023-01-29T12:32:56.504Z,15.80
2023-01-29T12:35:28.432Z,15.45
2023-01-29T12:38:02.493Z,17.70
2023-01-29T12:40:38.559Z,18.77
2023-01-29T12:43:15.246Z,15.27
2023-01-29T12:45:47.996Z,14.32
2023-01-29T12:51:38.669Z,16.40
2023-01-29T12:54:12.555Z,18.13
2023-01-29T12:56:47.012Z,18.30
2023-01-29T12:59:36.339Z,16.38
2023-01-29T13:02:20.518Z,17.67
2023-01-29T13:05:03.904Z,17.35
2023-01-29T13:07:36.011Z,16.52
2023-01-29T13:10:13.734Z,15.27
2023-01-29T13:12:51.707Z,16.13
2023-01-29T13:15:31.240Z,16.63
2023-01-29T13:18:30.781Z,18.02
2023-01-29T13:21:00.180Z,17.70
2023-01-29T13:23:36.233Z,17.58
2023-01-29T13:26:03.785Z,18.48
2023-01-29T13:28:30.573Z,17.90
2023-01-29T13:31:35.834Z,18.08
2023-01-29T13:34:31.514Z,21.95
2023-01-29T13:37:00.988Z,18.02
2023-01-29T13:39:34.367Z,16.73
2023-01-29T13:42:14.701Z,18.73
2023-01-29T13:44:41.446Z,19.23
2023-01-29T13:47:11.232Z,18.00
2023-01-29T13:49:59.507Z,20.10
2023-01-29T13:52:37.143Z,19.70
2023-01-29T13:55:15.220Z,17.08
2023-01-29T13:57:48.726Z,18.00
2023-01-29T14:00:21.188Z,14.50
2023-01-29T14:03:13.547Z,15.05
2023-01-29T14:05:58.425Z,14.20
2023-01-29T14:08:34.171Z,17.40
2023-01-29T14:11:16.914Z,16.15
2023-01-29T14:13:47.069Z,17.48
2023-01-29T14:16:13.524Z,16.33
2023-01-29T14:18:47.876Z,17.10
2023-01-29T14:21:14.380Z,17.42
2023-01-29T14:23:49.753Z,16.27
2023-01-29T14:26:32.243Z,17.98
2023-01-29T14:29:18.772Z,18.00
2023-01-29T14:32:21.256Z,19.38
2023-01-29T14:34:50.810Z,17.08
2023-01-29T14:37:28.178Z,16.90
2023-01-29T14:39:58.219Z,17.15
2023-01-29T14:42:29.579Z,19.95
2023-01-29T14:45:25.995Z,17.70
2023-01-29T14:48:02.217Z,16.63
2023-01-29T14:50:28.874Z,17.75
2023-01-29T14:53:19.591Z,17.38
2023-01-29T14:56:12.426Z,17.63
2023-01-29T14:58:51.881Z,17.30
2023-01-29T15:01:26.728Z,16.33
2023-01-29T15:04:02.586Z,20.05
2023-01-29T15:06:41.323Z,17.80
2023-01-29T15:09:36.388Z,18.40
2023-01-29T15:12:23.030Z,17.42
2023-01-29T15:15:01.849Z,16.90
2023-01-29T15:17:32.812Z,17.23
2023-01-29T15:19:59.554Z,19.77
2023-01-29T15:22:28.947Z,18.48
2023-01-29T15:25:07.308Z,17.77
2023-01-29T15:27:34.247Z,17.65
2023-01-29T15:30:04.381Z,16.45
2023-01-29T15:32:37.228Z,17.02
2023-01-29T15:35:19.815Z,16.77
2023-01-29T15:37:59.122Z,17.02
2023-01-29T15:40:26.889Z,16.88
2023-01-29T15:42:53.869Z,19.52
2023-01-29T15:45:32.219Z,19.05
2023-01-29T15:48:13.828Z,16.58
2023-01-29T15:50:42.288Z,16.92
2023-01-29T15:53:15.852Z,16.27
2023-01-29T15:55:43.634Z,15.57
2023-01-29T15:58:18.807Z,18.98
2023-01-29T16:00:55.512Z,19.88
2023-01-29T16:03:25.474Z,17.60
2023-01-29T16:05:52.642Z,18.20
2023-01-29T16:08:21.818Z,19.02
2023-01-29T16:10:53.617Z,17.02
2023-01-29T16:13:25.731Z,15.48
2023-01-29T16:16:07.504Z,14.85
2023-01-29T16:18:42.825Z,19.25
2023-01-29T16:21:17.253Z,18.27
2023-01-29T16:23:49.812Z,20.08
2023-01-29T16:26:21.662Z,25.40
2023-01-29T16:28:48.386Z,22.27
2023-01-29T16:31:23.669Z,23.65
2023-01-29T16:33:50.388Z,22.38
2023-01-29T16:36:21.676Z,23.15
2023-01-29T16:39:00.977Z,22.80
2023-01-29T16:41:33.146Z,24.13
2023-01-29T16:44:12.939Z,27.55
2023-01-29T16:46:48.008Z,22.42
2023-01-29T16:49:40.434Z,23.13
2023-01-29T16:52:19.291Z,19.48
2023-01-29T16:54:46.713Z,23.67
2023-01-29T16:57:18.141Z,22.40
2023-01-29T16:59:45.891Z,19.98
2023-01-29T17:02:23.096Z,21.73
2023-01-29T17:04:52.446Z,21.38
2023-01-29T17:07:22.317Z,24.20
2023-01-29T17:09:54.056Z,26.77
2023-01-29T17:12:26.396Z,24.48
2023-01-29T17:15:05.888Z,27.45
2023-01-29T17:17:35.748Z,22.85
2023-01-29T17:20:16.484Z,21.60
2023-01-29T17:22:44.688Z,24.42
2023-01-29T17:25:14.199Z,24.95
2023-01-29T17:27:45.199Z,23.38
2023-01-29T17:30:16.562Z,21.48
2023-01-29T17:32:47.347Z,27.00
2023-01-29T17:35:17.026Z,23.17
2023-01-29T17:37:44.959Z,22.02
2023-01-29T17:40:47.360Z,25.52
2023-01-29T17:43:13.903Z,25.13
2023-01-29T17:45:40.717Z,21.85
2023-01-29T17:48:15.361Z,27.13
2023-01-29T17:50:48.325Z,22.73
2023-01-29T17:53:17.859Z,24.90
2023-01-29T17:55:45.022Z,22.20
2023-01-29T18:00:46.825Z,23.23
2023-01-29T18:03:13.487Z,22.23
2023-01-29T18:05:42.429Z,21.50
2023-01-29T18:08:22.190Z,23.90
2023-01-29T18:10:48.669Z,23.08
2023-01-29T18:13:15.353Z,23.63
2023-01-29T18:15:43.074Z,22.75
2023-01-29T18:18:14.034Z,23.25
2023-01-29T18:20:40.642Z,20.77
2023-01-29T18:23:08.376Z,22.13
2023-01-29T18:25:35.241Z,20.98
2023-01-29T18:28:02.460Z,18.65
2023-01-29T18:30:31.505Z,21.38
2023-01-29T18:35:27.159Z,21.60
2023-01-29T18:37:54.032Z,21.85
2023-01-29T18:40:20.795Z,17.80
2023-01-29T18:42:47.470Z,20.27
2023-01-29T18:45:15.247Z,20.52
2023-01-29T18:47:42.671Z,20.50
2023-01-29T18:50:11.676Z,17.58
2023-01-29T18:52:38.853Z,17.50
2023-01-29T18:55:06.143Z,18.38
2023-01-29T18:58:31.048Z,18.20
2023-01-29T19:00:20.511Z,17.33
2023-01-29T19:02:46.921Z,17.50
2023-01-29T19:05:13.389Z,18.67
2023-01-29T19:07:41.262Z,17.45
2023-01-29T19:10:12.406Z,16.67
2023-01-29T19:12:42.210Z,16.38
2023-01-29T19:15:09.733Z,19.20
2023-01-29T19:17:37.938Z,17.05
2023-01-29T19:22:32.320Z,18.50
2023-01-29T19:24:59.094Z,20.50
2023-01-29T19:27:30.144Z,16.10
2023-01-29T19:29:58.079Z,15.15
2023-01-29T19:32:24.669Z,17.67
2023-01-29T19:34:52.161Z,17.85
2023-01-29T19:37:18.575Z,17.17
2023-01-29T19:39:45.075Z,17.50
2023-01-29T19:42:11.530Z,19.35
2023-01-29T19:44:56.273Z,20.45
2023-01-29T19:47:23.158Z,19.77
2023-01-29T19:49:50.595Z,17.40
2023-01-29T19:52:51.254Z,18.42
2023-01-29T19:55:19.948Z,18.38
2023-01-29T19:57:47.432Z,20.27
2023-01-29T20:00:15.467Z,17.30
2023-01-29T20:02:42.508Z,18.45
2023-01-29T20:05:11.949Z,20.05
2023-01-29T20:07:42.383Z,18.10
2023-01-29T20:10:16.839Z,20.05
2023-01-29T20:12:45.735Z,15.20
2023-01-29T20:15:13.944Z,17.17
2023-01-29T20:17:40.520Z,18.92
2023-01-29T20:22:35.924Z,16.60
2023-01-29T20:25:02.532Z,16.08
2023-01-29T20:27:29.221Z,17.35
2023-01-29T20:29:55.899Z,19.80
2023-01-29T20:32:22.616Z,15.32
2023-01-29T20:34:51.930Z,17.92
2023-01-29T20:37:19.852Z,15.60
2023-01-29T20:39:47.274Z,15.63
2023-01-29T20:42:14.202Z,16.70
2023-01-29T20:44:41.195Z,16.48
2023-01-29T20:47:08.373Z,18.73
2023-01-29T20:49:35.443Z,16.40
2023-01-29T20:52:01.952Z,15.57
2023-01-29T20:54:29.845Z,16.08
2023-01-29T20:56:57.119Z,16.90
2023-01-29T20:59:24.103Z,17.27
2023-01-29T21:01:50.848Z,16.83
2023-01-29T21:04:17.449Z,17.50
2023-01-29T21:06:44.248Z,15.70
2023-01-29T21:09:10.814Z,16.60
2023-01-29T21:11:37.326Z,18.08
2023-01-29T21:14:04.371Z,16.08
2023-01-29T21:16:32.224Z,17.05
2023-01-29T21:18:59.718Z,16.08
2023-01-29T21:21:26.883Z,15.73
2023-01-29T21:23:53.533Z,14.27
2023-01-29T21:28:47.108Z,14.50
2023-01-29T21:31:16.149Z,18.98
2023-01-29T21:33:44.330Z,14.93
2023-01-29T21:36:11.757Z,17.45
2023-01-29T21:38:38.823Z,14.85
2023-01-29T21:41:08.602Z,18.50
2023-01-29T21:43:35.572Z,15.43
2023-01-29T21:46:11.402Z,16.33
2023-01-29T21:48:39.281Z,18.90
2023-01-29T21:51:06.778Z,16.15
2023-01-29T21:53:33.802Z,15.15
2023-01-29T21:58:28.270Z,15.15
2023-01-29T22:00:54.725Z,15.85
2023-01-29T22:03:21.565Z,15.38
2023-01-29T22:05:49.952Z,16.98
2023-01-29T22:08:17.779Z,13.55
2023-01-29T22:10:44.294Z,12.85
2023-01-29T22:13:11.263Z,15.82
2023-01-29T22:18:04.906Z,15.60
2023-01-29T22:20:31.569Z,17.42
2023-01-29T22:25:27.518Z,13.40
2023-01-29T22:27:54.376Z,14.18
2023-01-29T22:30:23.102Z,15.68
2023-01-29T22:32:50.424Z,14.15
2023-01-29T22:35:17.401Z,17.92
2023-01-29T22:37:44.990Z,15.55
2023-01-29T22:42:38.574Z,17.73
2023-01-29T22:45:05.785Z,14.63
2023-01-29T22:47:33.564Z,13.85
2023-01-29T22:50:00.361Z,17.02
2023-01-29T22:52:27.860Z,14.70
2023-01-29T22:54:54.283Z,13.90
2023-01-29T22:57:20.860Z,15.23
2023-01-29T22:59:47.499Z,14.63
2023-01-29T23:02:14.209Z,14.35
2023-01-29T23:04:41.468Z,14.82
2023-01-29T23:07:07.940Z,16.80
2023-01-29T23:09:34.517Z,15.00
2023-01-29T23:12:01.308Z,12.43
2023-01-29T23:14:28.158Z,13.63
2023-01-29T23:16:55.129Z,14.88
2023-01-29T23:19:21.832Z,14.40
2023-01-29T23:21:48.548Z,16.23
2023-01-29T23:24:15.581Z,13.60
2023-01-29T23:27:00.817Z,17.25
2023-01-29T23:29:27.588Z,13.15
2023-01-29T23:31:54.195Z,13.52
2023-01-29T23:34:22.055Z,11.38
2023-01-29T23:36:48.581Z,13.63
2023-01-29T23:39:15.393Z,14.77
2023-01-29T23:41:42.039Z,13.30
2023-01-29T23:44:08.515Z,12.85
2023-01-29T23:46:35.352Z,14.10
2023-01-29T23:49:01.989Z,13.25
2023-01-29T23:51:29.012Z,15.27
2023-01-29T23:53:56.343Z,12.25
2023-01-29T23:56:23.048Z,14.02
2023-01-29T23:58:54.765Z,13.95
